sensor_id;sensor_type;location;lat;lon;timestamp;P1;durP1;ratioP1;P2;durP2;ratioP2
77022;SDS011;65952;51.440;-2.054;2023-01-19T00:02:20;9.85;;;4.10;;
77022;SDS011;65952;51.440;-2.054;2023-01-19T00:04:45;9.38;;;4.50;;
77022;SDS011;65952;51.440;-2.054;2023-01-19T00:07:11;8.20;;;4.07;;
77022;SDS011;65952;51.440;-2.054;2023-01-19T00:09:36;6.75;;;3.40;;
77022;SDS011;65952;51.440;-2.054;2023-01-19T00:12:10;7.50;;;3.88;;
77022;SDS011;65952;51.440;-2.054;2023-01-19T00:14:35;10.57;;;4.15;;
77022;SDS011;65952;51.440;-2.054;2023-01-19T00:17:01;9.15;;;4.05;;
77022;SDS011;65952;51.440;-2.054;2023-01-19T00:19:27;8.93;;;4.00;;
77022;SDS011;65952;51.440;-2.054;2023-01-19T00:21:53;7.55;;;3.90;;
77022;SDS011;65952;51.440;-2.054;2023-01-19T00:24:19;10.63;;;3.70;;
77022;SDS011;65952;51.440;-2.054;2023-01-19T00:26:44;9.18;;;3.90;;
77022;SDS011;65952;51.440;-2.054;2023-01-19T00:29:10;7.40;;;3.50;;
77022;SDS011;65952;51.440;-2.054;2023-01-19T00:31:36;7.30;;;4.07;;
77022;SDS011;65952;51.440;-2.054;2023-01-19T00:34:03;7.75;;;3.85;;
77022;SDS011;65952;51.440;-2.054;2023-01-19T00:36:29;7.22;;;4.13;;
77022;SDS011;65952;51.440;-2.054;2023-01-19T00:38:54;5.75;;;3.70;;
77022;SDS011;65952;51.440;-2.054;2023-01-19T00:41:20;6.65;;;3.92;;
77022;SDS011;65952;51.440;-2.054;2023-01-19T00:44:08;13.60;;;3.90;;
77022;SDS011;65952;51.440;-2.054;2023-01-19T00:46:37;8.80;;;4.00;;
77022;SDS011;65952;51.440;-2.054;2023-01-19T00:49:03;9.88;;;4.03;;
77022;SDS011;65952;51.440;-2.054;2023-01-19T00:51:29;8.82;;;3.97;;
77022;SDS011;65952;51.440;-2.054;2023-01-19T00:53:54;9.20;;;4.10;;
77022;SDS011;65952;51.440;-2.054;2023-01-19T00:56:19;7.45;;;4.00;;
77022;SDS011;65952;51.440;-2.054;2023-01-19T00:58:45;8.13;;;3.60;;
77022;SDS011;65952;51.440;-2.054;2023-01-19T01:01:11;6.72;;;3.97;;
77022;SDS011;65952;51.440;-2.054;2023-01-19T01:03:36;9.38;;;3.92;;
77022;SDS011;65952;51.440;-2.054;2023-01-19T01:06:02;8.68;;;3.72;;
77022;SDS011;65952;51.440;-2.054;2023-01-19T01:08:31;8.45;;;4.28;;
77022;SDS011;65952;51.440;-2.054;2023-01-19T01:10:56;7.10;;;3.58;;
77022;SDS011;65952;51.440;-2.054;2023-01-19T01:13:22;7.70;;;4.30;;
77022;SDS011;65952;51.440;-2.054;2023-01-19T01:15:51;7.97;;;4.20;;
77022;SDS011;65952;51.440;-2.054;2023-01-19T01:18:17;9.15;;;3.80;;
77022;SDS011;65952;51.440;-2.054;2023-01-19T01:20:43;9.23;;;3.83;;
77022;SDS011;65952;51.440;-2.054;2023-01-19T01:23:09;8.68;;;4.20;;
77022;SDS011;65952;51.440;-2.054;2023-01-19T01:25:34;11.15;;;4.82;;
77022;SDS011;65952;51.440;-2.054;2023-01-19T01:28:02;10.88;;;5.00;;
77022;SDS011;65952;51.440;-2.054;2023-01-19T01:30:29;8.52;;;4.47;;
77022;SDS011;65952;51.440;-2.054;2023-01-19T01:32:54;8.23;;;4.38;;
77022;SDS011;65952;51.440;-2.054;2023-01-19T01:35:20;9.95;;;4.22;;
77022;SDS011;65952;51.440;-2.054;2023-01-19T01:37:45;9.15;;;4.65;;
77022;SDS011;65952;51.440;-2.054;2023-01-19T01:40:11;8.40;;;4.15;;
77022;SDS011;65952;51.440;-2.054;2023-01-19T01:42:38;7.82;;;4.18;;
77022;SDS011;65952;51.440;-2.054;2023-01-19T01:45:06;9.40;;;4.55;;
77022;SDS011;65952;51.440;-2.054;2023-01-19T01:48:05;8.77;;;4.05;;
77022;SDS011;65952;51.440;-2.054;2023-01-19T01:50:35;7.78;;;4.68;;
77022;SDS011;65952;51.440;-2.054;2023-01-19T01:53:25;11.73;;;4.32;;
77022;SDS011;65952;51.440;-2.054;2023-01-19T01:55:53;7.15;;;3.80;;
77022;SDS011;65952;51.440;-2.054;2023-01-19T01:58:19;11.60;;;4.55;;
77022;SDS011;65952;51.440;-2.054;2023-01-19T02:00:46;9.35;;;4.40;;
77022;SDS011;65952;51.440;-2.054;2023-01-19T02:03:30;7.85;;;3.78;;
77022;SDS011;65952;51.440;-2.054;2023-01-19T02:05:58;6.90;;;3.63;;
77022;SDS011;65952;51.440;-2.054;2023-01-19T02:11:26;6.68;;;3.63;;
77022;SDS011;65952;51.440;-2.054;2023-01-19T02:14:11;6.65;;;3.28;;
77022;SDS011;65952;51.440;-2.054;2023-01-19T02:16:37;7.85;;;3.60;;
77022;SDS011;65952;51.440;-2.054;2023-01-19T02:19:04;5.95;;;3.20;;
77022;SDS011;65952;51.440;-2.054;2023-01-19T02:24:10;6.05;;;3.05;;
77022;SDS011;65952;51.440;-2.054;2023-01-19T02:26:40;6.68;;;3.00;;
77022;SDS011;65952;51.440;-2.054;2023-01-19T02:29:10;4.82;;;2.97;;
77022;SDS011;65952;51.440;-2.054;2023-01-19T02:31:38;5.13;;;2.85;;
77022;SDS011;65952;51.440;-2.054;2023-01-19T02:34:05;5.57;;;3.03;;
77022;SDS011;65952;51.440;-2.054;2023-01-19T02:36:47;6.15;;;3.00;;
77022;SDS011;65952;51.440;-2.054;2023-01-19T02:39:13;5.50;;;3.20;;
77022;SDS011;65952;51.440;-2.054;2023-01-19T02:41:44;5.30;;;2.70;;
77022;SDS011;65952;51.440;-2.054;2023-01-19T02:44:13;7.32;;;2.92;;
77022;SDS011;65952;51.440;-2.054;2023-01-19T02:46:40;10.35;;;3.17;;
77022;SDS011;65952;51.440;-2.054;2023-01-19T02:49:06;10.95;;;4.05;;
77022;SDS011;65952;51.440;-2.054;2023-01-19T02:51:31;6.20;;;3.28;;
77022;SDS011;65952;51.440;-2.054;2023-01-19T03:01:55;7.07;;;3.30;;
77022;SDS011;65952;51.440;-2.054;2023-01-19T03:12:49;5.28;;;2.75;;
77022;SDS011;65952;51.440;-2.054;2023-01-19T03:15:20;7.78;;;3.15;;
77022;SDS011;65952;51.440;-2.054;2023-01-19T03:17:52;7.53;;;3.38;;
77022;SDS011;65952;51.440;-2.054;2023-01-19T03:20:21;5.65;;;3.13;;
77022;SDS011;65952;51.440;-2.054;2023-01-19T03:22:51;8.23;;;3.28;;
77022;SDS011;65952;51.440;-2.054;2023-01-19T03:25:22;6.10;;;3.35;;
77022;SDS011;65952;51.440;-2.054;2023-01-19T03:27:50;5.35;;;2.90;;
77022;SDS011;65952;51.440;-2.054;2023-01-19T03:30:23;6.68;;;3.13;;
77022;SDS011;65952;51.440;-2.054;2023-01-19T03:32:54;5.93;;;3.40;;
77022;SDS011;65952;51.440;-2.054;2023-01-19T03:35:25;5.93;;;3.40;;
77022;SDS011;65952;51.440;-2.054;2023-01-19T03:37:55;8.02;;;3.85;;
77022;SDS011;65952;51.440;-2.054;2023-01-19T03:40:28;8.75;;;3.72;;
77022;SDS011;65952;51.440;-2.054;2023-01-19T03:42:56;9.45;;;3.42;;
77022;SDS011;65952;51.440;-2.054;2023-01-19T03:45:23;6.88;;;3.35;;
77022;SDS011;65952;51.440;-2.054;2023-01-19T03:47:49;8.10;;;3.65;;
77022;SDS011;65952;51.440;-2.054;2023-01-19T03:50:22;6.88;;;3.10;;
77022;SDS011;65952;51.440;-2.054;2023-01-19T03:55:34;7.43;;;3.30;;
77022;SDS011;65952;51.440;-2.054;2023-01-19T03:58:00;6.28;;;3.17;;
77022;SDS011;65952;51.440;-2.054;2023-01-19T04:00:26;6.18;;;3.70;;
77022;SDS011;65952;51.440;-2.054;2023-01-19T04:02:52;8.45;;;3.38;;
77022;SDS011;65952;51.440;-2.054;2023-01-19T04:05:19;7.07;;;3.70;;
77022;SDS011;65952;51.440;-2.054;2023-01-19T04:07:46;6.38;;;3.40;;
77022;SDS011;65952;51.440;-2.054;2023-01-19T04:10:13;6.90;;;3.10;;
77022;SDS011;65952;51.440;-2.054;2023-01-19T04:12:40;6.45;;;3.60;;
77022;SDS011;65952;51.440;-2.054;2023-01-19T04:15:05;7.70;;;3.40;;
77022;SDS011;65952;51.440;-2.054;2023-01-19T04:17:31;8.50;;;3.78;;
77022;SDS011;65952;51.440;-2.054;2023-01-19T04:19:57;7.40;;;3.65;;
77022;SDS011;65952;51.440;-2.054;2023-01-19T04:22:22;8.10;;;3.58;;
77022;SDS011;65952;51.440;-2.054;2023-01-19T04:24:48;9.35;;;3.70;;
77022;SDS011;65952;51.440;-2.054;2023-01-19T04:27:13;5.97;;;3.60;;
77022;SDS011;65952;51.440;-2.054;2023-01-19T04:29:40;7.05;;;3.65;;
77022;SDS011;65952;51.440;-2.054;2023-01-19T04:32:06;6.03;;;3.38;;
77022;SDS011;65952;51.440;-2.054;2023-01-19T04:34:32;5.72;;;3.42;;
77022;SDS011;65952;51.440;-2.054;2023-01-19T04:36:57;7.10;;;3.50;;
77022;SDS011;65952;51.440;-2.054;2023-01-19T04:39:22;8.15;;;3.55;;
77022;SDS011;65952;51.440;-2.054;2023-01-19T04:41:48;10.18;;;3.83;;
77022;SDS011;65952;51.440;-2.054;2023-01-19T04:44:13;6.10;;;3.33;;
77022;SDS011;65952;51.440;-2.054;2023-01-19T04:46:38;7.40;;;3.65;;
77022;SDS011;65952;51.440;-2.054;2023-01-19T04:49:04;7.60;;;3.75;;
77022;SDS011;65952;51.440;-2.054;2023-01-19T04:51:29;7.43;;;3.50;;
77022;SDS011;65952;51.440;-2.054;2023-01-19T04:53:55;9.95;;;4.03;;
77022;SDS011;65952;51.440;-2.054;2023-01-19T04:56:21;10.07;;;3.67;;
77022;SDS011;65952;51.440;-2.054;2023-01-19T04:58:47;7.43;;;4.00;;
77022;SDS011;65952;51.440;-2.054;2023-01-19T05:01:12;7.82;;;3.92;;
77022;SDS011;65952;51.440;-2.054;2023-01-19T05:03:37;10.00;;;3.78;;
77022;SDS011;65952;51.440;-2.054;2023-01-19T05:06:04;7.55;;;3.47;;
77022;SDS011;65952;51.440;-2.054;2023-01-19T05:08:30;6.88;;;3.80;;
77022;SDS011;65952;51.440;-2.054;2023-01-19T05:10:55;7.28;;;4.13;;
77022;SDS011;65952;51.440;-2.054;2023-01-19T05:13:21;8.23;;;4.20;;
77022;SDS011;65952;51.440;-2.054;2023-01-19T05:15:47;8.73;;;3.92;;
77022;SDS011;65952;51.440;-2.054;2023-01-19T05:18:12;8.98;;;4.15;;
77022;SDS011;65952;51.440;-2.054;2023-01-19T05:20:38;8.35;;;4.00;;
77022;SDS011;65952;51.440;-2.054;2023-01-19T05:23:04;7.47;;;4.15;;
77022;SDS011;65952;51.440;-2.054;2023-01-19T05:25:29;8.45;;;4.30;;
77022;SDS011;65952;51.440;-2.054;2023-01-19T05:27:56;8.45;;;4.30;;
77022;SDS011;65952;51.440;-2.054;2023-01-19T05:30:21;10.45;;;4.03;;
77022;SDS011;65952;51.440;-2.054;2023-01-19T05:32:47;9.18;;;4.40;;
77022;SDS011;65952;51.440;-2.054;2023-01-19T05:35:12;6.97;;;3.72;;
77022;SDS011;65952;51.440;-2.054;2023-01-19T05:37:38;8.07;;;3.90;;
77022;SDS011;65952;51.440;-2.054;2023-01-19T05:40:04;7.38;;;3.95;;
77022;SDS011;65952;51.440;-2.054;2023-01-19T05:42:30;7.65;;;3.83;;
77022;SDS011;65952;51.440;-2.054;2023-01-19T05:44:55;9.95;;;4.43;;
77022;SDS011;65952;51.440;-2.054;2023-01-19T05:47:21;8.43;;;4.47;;
77022;SDS011;65952;51.440;-2.054;2023-01-19T05:49:46;7.65;;;3.90;;
77022;SDS011;65952;51.440;-2.054;2023-01-19T05:52:12;12.68;;;4.97;;
77022;SDS011;65952;51.440;-2.054;2023-01-19T05:54:37;9.25;;;4.75;;
77022;SDS011;65952;51.440;-2.054;2023-01-19T05:57:04;10.45;;;4.47;;
77022;SDS011;65952;51.440;-2.054;2023-01-19T05:59:30;10.38;;;4.53;;
77022;SDS011;65952;51.440;-2.054;2023-01-19T06:01:55;11.45;;;4.55;;
77022;SDS011;65952;51.440;-2.054;2023-01-19T06:04:21;9.25;;;4.68;;
77022;SDS011;65952;51.440;-2.054;2023-01-19T06:06:47;11.63;;;4.82;;
77022;SDS011;65952;51.440;-2.054;2023-01-19T06:09:13;11.23;;;4.72;;
77022;SDS011;65952;51.440;-2.054;2023-01-19T06:11:39;9.60;;;5.10;;
77022;SDS011;65952;51.440;-2.054;2023-01-19T06:14:04;8.80;;;4.45;;
77022;SDS011;65952;51.440;-2.054;2023-01-19T06:16:29;9.10;;;5.07;;
77022;SDS011;65952;51.440;-2.054;2023-01-19T06:18:55;8.77;;;4.00;;
77022;SDS011;65952;51.440;-2.054;2023-01-19T06:21:20;9.15;;;3.90;;
77022;SDS011;65952;51.440;-2.054;2023-01-19T06:23:46;14.90;;;4.10;;
77022;SDS011;65952;51.440;-2.054;2023-01-19T06:26:11;11.38;;;4.15;;
77022;SDS011;65952;51.440;-2.054;2023-01-19T06:28:37;7.03;;;3.72;;
77022;SDS011;65952;51.440;-2.054;2023-01-19T06:31:03;9.43;;;3.88;;
77022;SDS011;65952;51.440;-2.054;2023-01-19T06:33:28;6.38;;;3.20;;
77022;SDS011;65952;51.440;-2.054;2023-01-19T06:35:54;6.55;;;3.60;;
77022;SDS011;65952;51.440;-2.054;2023-01-19T06:38:20;8.38;;;4.15;;
77022;SDS011;65952;51.440;-2.054;2023-01-19T06:40:50;7.28;;;4.35;;
77022;SDS011;65952;51.440;-2.054;2023-01-19T06:43:18;9.25;;;4.50;;
77022;SDS011;65952;51.440;-2.054;2023-01-19T06:45:44;9.77;;;4.68;;
77022;SDS011;65952;51.440;-2.054;2023-01-19T06:48:09;9.43;;;4.55;;
77022;SDS011;65952;51.440;-2.054;2023-01-19T06:50:35;7.90;;;4.82;;
77022;SDS011;65952;51.440;-2.054;2023-01-19T06:53:00;9.00;;;5.18;;
77022;SDS011;65952;51.440;-2.054;2023-01-19T06:55:26;11.27;;;5.53;;
77022;SDS011;65952;51.440;-2.054;2023-01-19T06:57:55;11.48;;;6.00;;
77022;SDS011;65952;51.440;-2.054;2023-01-19T07:00:22;13.70;;;5.43;;
77022;SDS011;65952;51.440;-2.054;2023-01-19T07:02:48;10.25;;;5.50;;
77022;SDS011;65952;51.440;-2.054;2023-01-19T07:05:13;10.93;;;5.70;;
77022;SDS011;65952;51.440;-2.054;2023-01-19T07:07:39;11.35;;;5.07;;
77022;SDS011;65952;51.440;-2.054;2023-01-19T07:10:06;12.18;;;6.22;;
77022;SDS011;65952;51.440;-2.054;2023-01-19T07:12:33;13.10;;;6.63;;
77022;SDS011;65952;51.440;-2.054;2023-01-19T07:14:58;13.68;;;6.72;;
77022;SDS011;65952;51.440;-2.054;2023-01-19T07:17:24;13.98;;;6.78;;
77022;SDS011;65952;51.440;-2.054;2023-01-19T07:19:50;13.45;;;6.88;;
77022;SDS011;65952;51.440;-2.054;2023-01-19T07:22:15;13.70;;;7.25;;
77022;SDS011;65952;51.440;-2.054;2023-01-19T07:24:41;12.55;;;7.05;;
77022;SDS011;65952;51.440;-2.054;2023-01-19T07:27:06;15.02;;;7.75;;
77022;SDS011;65952;51.440;-2.054;2023-01-19T07:29:32;18.25;;;8.23;;
77022;SDS011;65952;51.440;-2.054;2023-01-19T07:31:57;13.98;;;7.53;;
77022;SDS011;65952;51.440;-2.054;2023-01-19T07:34:22;14.00;;;7.30;;
77022;SDS011;65952;51.440;-2.054;2023-01-19T07:36:48;17.08;;;7.35;;
77022;SDS011;65952;51.440;-2.054;2023-01-19T07:39:13;17.27;;;7.78;;
77022;SDS011;65952;51.440;-2.054;2023-01-19T07:41:39;14.60;;;7.05;;
77022;SDS011;65952;51.440;-2.054;2023-01-19T07:44:05;16.50;;;6.68;;
77022;SDS011;65952;51.440;-2.054;2023-01-19T07:46:31;14.48;;;6.40;;
77022;SDS011;65952;51.440;-2.054;2023-01-19T07:48:56;13.90;;;6.65;;
77022;SDS011;65952;51.440;-2.054;2023-01-19T07:51:22;15.95;;;6.55;;
77022;SDS011;65952;51.440;-2.054;2023-01-19T07:53:50;14.30;;;7.00;;
77022;SDS011;65952;51.440;-2.054;2023-01-19T07:56:15;14.32;;;6.22;;
77022;SDS011;65952;51.440;-2.054;2023-01-19T07:58:41;12.25;;;6.07;;
77022;SDS011;65952;51.440;-2.054;2023-01-19T08:01:07;13.75;;;6.43;;
77022;SDS011;65952;51.440;-2.054;2023-01-19T08:03:35;12.95;;;6.50;;
77022;SDS011;65952;51.440;-2.054;2023-01-19T08:06:01;14.85;;;5.75;;
77022;SDS011;65952;51.440;-2.054;2023-01-19T08:08:28;11.13;;;5.28;;
77022;SDS011;65952;51.440;-2.054;2023-01-19T08:10:54;16.85;;;5.57;;
77022;SDS011;65952;51.440;-2.054;2023-01-19T08:13:19;13.63;;;5.55;;
77022;SDS011;65952;51.440;-2.054;2023-01-19T08:15:47;9.18;;;4.22;;
77022;SDS011;65952;51.440;-2.054;2023-01-19T08:18:14;8.70;;;4.50;;
77022;SDS011;65952;51.440;-2.054;2023-01-19T08:20:39;8.48;;;4.32;;
77022;SDS011;65952;51.440;-2.054;2023-01-19T08:23:05;6.68;;;3.70;;
77022;SDS011;65952;51.440;-2.054;2023-01-19T08:27:59;10.80;;;3.38;;
77022;SDS011;65952;51.440;-2.054;2023-01-19T08:30:25;10.25;;;2.92;;
77022;SDS011;65952;51.440;-2.054;2023-01-19T08:32:51;7.90;;;2.88;;
77022;SDS011;65952;51.440;-2.054;2023-01-19T08:35:27;6.10;;;2.90;;
77022;SDS011;65952;51.440;-2.054;2023-01-19T08:37:54;6.25;;;2.85;;
77022;SDS011;65952;51.440;-2.054;2023-01-19T08:40:19;9.02;;;2.67;;
77022;SDS011;65952;51.440;-2.054;2023-01-19T08:42:45;5.85;;;2.65;;
77022;SDS011;65952;51.440;-2.054;2023-01-19T08:45:10;9.18;;;3.05;;
77022;SDS011;65952;51.440;-2.054;2023-01-19T08:47:36;7.93;;;2.90;;
77022;SDS011;65952;51.440;-2.054;2023-01-19T08:50:01;7.13;;;2.70;;
77022;SDS011;65952;51.440;-2.054;2023-01-19T08:52:27;7.93;;;2.58;;
77022;SDS011;65952;51.440;-2.054;2023-01-19T08:54:53;9.70;;;3.70;;
77022;SDS011;65952;51.440;-2.054;2023-01-19T08:57:18;7.35;;;3.13;;
77022;SDS011;65952;51.440;-2.054;2023-01-19T08:59:44;6.85;;;2.70;;
77022;SDS011;65952;51.440;-2.054;2023-01-19T09:02:11;6.10;;;2.50;;
77022;SDS011;65952;51.440;-2.054;2023-01-19T09:04:36;4.93;;;2.55;;
77022;SDS011;65952;51.440;-2.054;2023-01-19T09:07:02;8.30;;;2.42;;
77022;SDS011;65952;51.440;-2.054;2023-01-19T09:09:28;7.25;;;2.63;;
77022;SDS011;65952;51.440;-2.054;2023-01-19T09:11:53;5.50;;;2.67;;
77022;SDS011;65952;51.440;-2.054;2023-01-19T09:14:19;7.70;;;2.90;;
77022;SDS011;65952;51.440;-2.054;2023-01-19T09:16:45;7.47;;;2.58;;
77022;SDS011;65952;51.440;-2.054;2023-01-19T09:19:11;6.85;;;2.95;;
77022;SDS011;65952;51.440;-2.054;2023-01-19T09:21:38;8.27;;;2.60;;
77022;SDS011;65952;51.440;-2.054;2023-01-19T09:24:03;5.18;;;2.40;;
77022;SDS011;65952;51.440;-2.054;2023-01-19T09:26:29;7.45;;;2.50;;
77022;SDS011;65952;51.440;-2.054;2023-01-19T09:28:55;6.45;;;1.88;;
77022;SDS011;65952;51.440;-2.054;2023-01-19T09:31:21;4.40;;;2.00;;
77022;SDS011;65952;51.440;-2.054;2023-01-19T09:33:46;5.97;;;2.00;;
77022;SDS011;65952;51.440;-2.054;2023-01-19T09:36:12;4.85;;;1.90;;
77022;SDS011;65952;51.440;-2.054;2023-01-19T09:38:37;6.20;;;2.30;;
77022;SDS011;65952;51.440;-2.054;2023-01-19T09:41:02;5.20;;;2.30;;
77022;SDS011;65952;51.440;-2.054;2023-01-19T09:46:01;5.10;;;2.75;;
77022;SDS011;65952;51.440;-2.054;2023-01-19T09:48:38;5.78;;;2.47;;
77022;SDS011;65952;51.440;-2.054;2023-01-19T09:51:11;8.15;;;2.72;;
77022;SDS011;65952;51.440;-2.054;2023-01-19T09:53:42;7.00;;;2.25;;
77022;SDS011;65952;51.440;-2.054;2023-01-19T09:56:19;4.55;;;2.30;;
77022;SDS011;65952;51.440;-2.054;2023-01-19T09:58:46;9.75;;;4.45;;
77022;SDS011;65952;51.440;-2.054;2023-01-19T10:07:12;9.48;;;6.13;;
77022;SDS011;65952;51.440;-2.054;2023-01-19T10:12:47;7.45;;;3.70;;
77022;SDS011;65952;51.440;-2.054;2023-01-19T10:20:36;7.43;;;4.18;;
77022;SDS011;65952;51.440;-2.054;2023-01-19T10:23:22;7.80;;;4.28;;
77022;SDS011;65952;51.440;-2.054;2023-01-19T10:25:56;7.15;;;3.63;;
77022;SDS011;65952;51.440;-2.054;2023-01-19T10:28:25;7.45;;;3.28;;
77022;SDS011;65952;51.440;-2.054;2023-01-19T10:30:52;6.57;;;3.20;;
77022;SDS011;65952;51.440;-2.054;2023-01-19T10:33:19;6.45;;;3.25;;
77022;SDS011;65952;51.440;-2.054;2023-01-19T10:35:45;7.10;;;3.28;;
77022;SDS011;65952;51.440;-2.054;2023-01-19T10:38:13;6.88;;;3.75;;
77022;SDS011;65952;51.440;-2.054;2023-01-19T10:40:59;7.63;;;3.55;;
77022;SDS011;65952;51.440;-2.054;2023-01-19T10:43:36;6.30;;;3.40;;
77022;SDS011;65952;51.440;-2.054;2023-01-19T10:46:04;6.43;;;3.30;;
77022;SDS011;65952;51.440;-2.054;2023-01-19T10:48:39;5.45;;;2.97;;
77022;SDS011;65952;51.440;-2.054;2023-01-19T10:51:07;7.60;;;3.42;;
77022;SDS011;65952;51.440;-2.054;2023-01-19T10:53:34;6.72;;;3.22;;
77022;SDS011;65952;51.440;-2.054;2023-01-19T10:56:11;5.43;;;3.22;;
77022;SDS011;65952;51.440;-2.054;2023-01-19T10:58:40;6.43;;;2.88;;
77022;SDS011;65952;51.440;-2.054;2023-01-19T11:03:42;7.65;;;3.10;;
77022;SDS011;65952;51.440;-2.054;2023-01-19T11:08:39;5.95;;;2.58;;
77022;SDS011;65952;51.440;-2.054;2023-01-19T11:11:07;7.18;;;3.05;;
77022;SDS011;65952;51.440;-2.054;2023-01-19T11:13:33;8.50;;;3.10;;
77022;SDS011;65952;51.440;-2.054;2023-01-19T11:18:50;8.10;;;3.33;;
77022;SDS011;65952;51.440;-2.054;2023-01-19T11:21:17;8.15;;;3.22;;
77022;SDS011;65952;51.440;-2.054;2023-01-19T11:23:47;7.55;;;3.25;;
77022;SDS011;65952;51.440;-2.054;2023-01-19T11:29:21;7.00;;;3.05;;
77022;SDS011;65952;51.440;-2.054;2023-01-19T11:31:49;7.68;;;2.97;;
77022;SDS011;65952;51.440;-2.054;2023-01-19T11:34:23;10.25;;;3.17;;
77022;SDS011;65952;51.440;-2.054;2023-01-19T11:37:00;8.07;;;2.90;;
77022;SDS011;65952;51.440;-2.054;2023-01-19T11:39:28;7.63;;;3.35;;
77022;SDS011;65952;51.440;-2.054;2023-01-19T11:42:03;7.68;;;3.35;;
77022;SDS011;65952;51.440;-2.054;2023-01-19T11:44:34;7.32;;;3.15;;
77022;SDS011;65952;51.440;-2.054;2023-01-19T11:47:10;6.78;;;3.50;;
77022;SDS011;65952;51.440;-2.054;2023-01-19T11:49:51;6.82;;;3.33;;
77022;SDS011;65952;51.440;-2.054;2023-01-19T11:52:30;7.00;;;3.38;;
77022;SDS011;65952;51.440;-2.054;2023-01-19T11:56:05;6.63;;;3.47;;
77022;SDS011;65952;51.440;-2.054;2023-01-19T11:58:21;8.70;;;3.60;;
77022;SDS011;65952;51.440;-2.054;2023-01-19T12:00:53;10.00;;;4.30;;
77022;SDS011;65952;51.440;-2.054;2023-01-19T12:03:39;10.32;;;4.57;;
77022;SDS011;65952;51.440;-2.054;2023-01-19T12:06:14;9.93;;;4.38;;
77022;SDS011;65952;51.440;-2.054;2023-01-19T12:08:45;10.15;;;4.30;;
77022;SDS011;65952;51.440;-2.054;2023-01-19T12:11:16;11.35;;;4.25;;
77022;SDS011;65952;51.440;-2.054;2023-01-19T12:13:47;8.65;;;4.15;;
77022;SDS011;65952;51.440;-2.054;2023-01-19T12:16:16;13.23;;;4.15;;
77022;SDS011;65952;51.440;-2.054;2023-01-19T12:18:45;10.00;;;4.50;;
77022;SDS011;65952;51.440;-2.054;2023-01-19T12:21:15;8.63;;;4.25;;
77022;SDS011;65952;51.440;-2.054;2023-01-19T12:26:52;9.95;;;4.43;;
77022;SDS011;65952;51.440;-2.054;2023-01-19T12:29:21;9.90;;;4.63;;
77022;SDS011;65952;51.440;-2.054;2023-01-19T12:32:15;7.97;;;3.88;;
77022;SDS011;65952;51.440;-2.054;2023-01-19T12:34:39;11.73;;;4.40;;
77022;SDS011;65952;51.440;-2.054;2023-01-19T12:39:51;10.27;;;4.40;;
77022;SDS011;65952;51.440;-2.054;2023-01-19T12:42:17;6.75;;;3.53;;
77022;SDS011;65952;51.440;-2.054;2023-01-19T12:44:43;6.05;;;3.42;;
77022;SDS011;65952;51.440;-2.054;2023-01-19T12:52:17;8.18;;;3.55;;
77022;SDS011;65952;51.440;-2.054;2023-01-19T13:13:40;8.40;;;2.38;;
77022;SDS011;65952;51.440;-2.054;2023-01-19T13:18:42;5.85;;;2.47;;
77022;SDS011;65952;51.440;-2.054;2023-01-19T13:24:10;3.72;;;2.17;;
77022;SDS011;65952;51.440;-2.054;2023-01-19T13:26:41;6.30;;;2.88;;
77022;SDS011;65952;51.440;-2.054;2023-01-19T13:29:25;6.57;;;2.40;;
77022;SDS011;65952;51.440;-2.054;2023-01-19T13:31:51;6.85;;;2.60;;
77022;SDS011;65952;51.440;-2.054;2023-01-19T13:34:20;4.63;;;2.17;;
77022;SDS011;65952;51.440;-2.054;2023-01-19T13:36:51;9.77;;;3.03;;
77022;SDS011;65952;51.440;-2.054;2023-01-19T13:39:34;7.60;;;2.55;;
77022;SDS011;65952;51.440;-2.054;2023-01-19T13:42:06;4.97;;;2.15;;
77022;SDS011;65952;51.440;-2.054;2023-01-19T13:44:40;6.97;;;2.72;;
77022;SDS011;65952;51.440;-2.054;2023-01-19T13:47:12;4.85;;;2.22;;
77022;SDS011;65952;51.440;-2.054;2023-01-19T13:49:44;7.28;;;2.20;;
77022;SDS011;65952;51.440;-2.054;2023-01-19T13:52:13;6.07;;;2.63;;
77022;SDS011;65952;51.440;-2.054;2023-01-19T13:54:50;7.20;;;2.35;;
77022;SDS011;65952;51.440;-2.054;2023-01-19T13:57:28;4.85;;;2.17;;
77022;SDS011;65952;51.440;-2.054;2023-01-19T14:02:30;4.93;;;2.17;;
77022;SDS011;65952;51.440;-2.054;2023-01-19T14:04:55;6.20;;;2.10;;
77022;SDS011;65952;51.440;-2.054;2023-01-19T14:07:21;5.78;;;2.15;;
77022;SDS011;65952;51.440;-2.054;2023-01-19T14:10:05;4.47;;;2.00;;
77022;SDS011;65952;51.440;-2.054;2023-01-19T14:12:35;3.97;;;1.80;;
77022;SDS011;65952;51.440;-2.054;2023-01-19T14:15:01;5.03;;;2.22;;
77022;SDS011;65952;51.440;-2.054;2023-01-19T14:17:29;5.15;;;1.98;;
77022;SDS011;65952;51.440;-2.054;2023-01-19T14:19:56;5.10;;;2.20;;
77022;SDS011;65952;51.440;-2.054;2023-01-19T14:22:41;6.63;;;2.00;;
77022;SDS011;65952;51.440;-2.054;2023-01-19T14:25:25;5.97;;;2.20;;
77022;SDS011;65952;51.440;-2.054;2023-01-19T14:28:24;4.28;;;1.77;;
77022;SDS011;65952;51.440;-2.054;2023-01-19T14:31:22;6.43;;;1.90;;
77022;SDS011;65952;51.440;-2.054;2023-01-19T14:33:52;4.20;;;2.08;;
77022;SDS011;65952;51.440;-2.054;2023-01-19T14:36:26;4.68;;;1.95;;
77022;SDS011;65952;51.440;-2.054;2023-01-19T14:38:57;4.35;;;2.00;;
77022;SDS011;65952;51.440;-2.054;2023-01-19T14:43:59;4.15;;;1.90;;
77022;SDS011;65952;51.440;-2.054;2023-01-19T14:46:25;6.43;;;2.60;;
77022;SDS011;65952;51.440;-2.054;2023-01-19T14:48:52;4.47;;;1.95;;
77022;SDS011;65952;51.440;-2.054;2023-01-19T14:51:26;5.72;;;2.20;;
77022;SDS011;65952;51.440;-2.054;2023-01-19T14:53:53;7.70;;;1.92;;
77022;SDS011;65952;51.440;-2.054;2023-01-19T14:56:24;6.25;;;1.90;;
77022;SDS011;65952;51.440;-2.054;2023-01-19T14:58:59;5.05;;;1.98;;
77022;SDS011;65952;51.440;-2.054;2023-01-19T15:01:26;4.80;;;1.90;;
77022;SDS011;65952;51.440;-2.054;2023-01-19T15:03:56;3.63;;;1.73;;
77022;SDS011;65952;51.440;-2.054;2023-01-19T15:06:22;5.80;;;1.92;;
77022;SDS011;65952;51.440;-2.054;2023-01-19T15:08:49;4.30;;;1.75;;
77022;SDS011;65952;51.440;-2.054;2023-01-19T15:11:28;6.57;;;1.95;;
77022;SDS011;65952;51.440;-2.054;2023-01-19T15:13:56;4.97;;;1.98;;
77022;SDS011;65952;51.440;-2.054;2023-01-19T15:16:23;9.77;;;2.25;;
77022;SDS011;65952;51.440;-2.054;2023-01-19T15:18:50;3.53;;;1.75;;
77022;SDS011;65952;51.440;-2.054;2023-01-19T15:21:16;5.20;;;1.70;;
77022;SDS011;65952;51.440;-2.054;2023-01-19T15:23:47;5.25;;;1.98;;
77022;SDS011;65952;51.440;-2.054;2023-01-19T15:26:17;5.50;;;1.85;;
77022;SDS011;65952;51.440;-2.054;2023-01-19T15:28:44;4.07;;;1.90;;
77022;SDS011;65952;51.440;-2.054;2023-01-19T15:31:16;3.97;;;1.98;;
77022;SDS011;65952;51.440;-2.054;2023-01-19T15:33:44;3.88;;;1.90;;
77022;SDS011;65952;51.440;-2.054;2023-01-19T15:36:13;4.50;;;1.98;;
77022;SDS011;65952;51.440;-2.054;2023-01-19T15:38:40;4.20;;;2.10;;
77022;SDS011;65952;51.440;-2.054;2023-01-19T15:41:24;3.67;;;1.80;;
77022;SDS011;65952;51.440;-2.054;2023-01-19T15:43:51;6.38;;;1.98;;
77022;SDS011;65952;51.440;-2.054;2023-01-19T15:46:20;5.15;;;1.80;;
77022;SDS011;65952;51.440;-2.054;2023-01-19T15:48:46;3.55;;;1.75;;
77022;SDS011;65952;51.440;-2.054;2023-01-19T15:51:12;5.25;;;1.88;;
77022;SDS011;65952;51.440;-2.054;2023-01-19T15:53:40;4.32;;;2.00;;
77022;SDS011;65952;51.440;-2.054;2023-01-19T15:56:10;8.07;;;2.20;;
77022;SDS011;65952;51.440;-2.054;2023-01-19T16:01:04;7.13;;;2.00;;
77022;SDS011;65952;51.440;-2.054;2023-01-19T16:03:29;6.53;;;2.10;;
77022;SDS011;65952;51.440;-2.054;2023-01-19T16:05:58;4.18;;;2.05;;
77022;SDS011;65952;51.440;-2.054;2023-01-19T16:08:24;6.18;;;2.33;;
77022;SDS011;65952;51.440;-2.054;2023-01-19T16:10:50;5.90;;;2.20;;
77022;SDS011;65952;51.440;-2.054;2023-01-19T16:13:15;4.43;;;2.05;;
77022;SDS011;65952;51.440;-2.054;2023-01-19T16:15:40;6.28;;;2.42;;
77022;SDS011;65952;51.440;-2.054;2023-01-19T16:18:08;4.43;;;2.33;;
77022;SDS011;65952;51.440;-2.054;2023-01-19T16:20:34;7.93;;;2.20;;